sensor_id;sensor_type;location;lat;lon;timestamp;pressure;altitude;pressure_sealevel;temperature;humidity
9110;BME280;4590;51.462;6.692;2024-01-16T00:01:48;100638.59;;;2.47;75.32
9110;BME280;4590;51.462;6.692;2024-01-16T00:04:31;100645.94;;;2.52;74.92
9110;BME280;4590;51.462;6.692;2024-01-16T00:07:23;100646.78;;;2.53;74.30
9110;BME280;4590;51.462;6.692;2024-01-16T00:10:19;100650.28;;;2.48;74.37
9110;BME280;4590;51.462;6.692;2024-01-16T00:13:06;100650.06;;;2.55;75.09
9110;BME280;4590;51.462;6.692;2024-01-16T00:15:53;100642.72;;;2.55;74.49
9110;BME280;4590;51.462;6.692;2024-01-16T00:18:26;100640.22;;;2.49;74.50
9110;BME280;4590;51.462;6.692;2024-01-16T00:20:54;100659.81;;;2.51;74.42
9110;BME280;4590;51.462;6.692;2024-01-16T00:23:43;100661.97;;;2.49;74.48
9110;BME280;4590;51.462;6.692;2024-01-16T00:26:30;100661.44;;;2.52;74.87
9110;BME280;4590;51.462;6.692;2024-01-16T00:29:18;100660.63;;;2.51;75.23
9110;BME280;4590;51.462;6.692;2024-01-16T00:31:46;100659.81;;;2.51;74.37
9110;BME280;4590;51.462;6.692;2024-01-16T00:34:13;100655.19;;;2.51;74.79
9110;BME280;4590;51.462;6.692;2024-01-16T00:37:18;100666.81;;;2.46;74.23
9110;BME280;4590;51.462;6.692;2024-01-16T00:40:06;100668.47;;;2.47;74.28
9110;BME280;4590;51.462;6.692;2024-01-16T00:42:52;100668.47;;;2.47;74.43
9110;BME280;4590;51.462;6.692;2024-01-16T00:45:31;100672.00;;;2.48;74.29
9110;BME280;4590;51.462;6.692;2024-01-16T00:48:00;100675.28;;;2.50;74.91
9110;BME280;4590;51.462;6.692;2024-01-16T00:50:47;100679.34;;;2.53;74.45
9110;BME280;4590;51.462;6.692;2024-01-16T00:53:58;100669.28;;;2.48;74.76
9110;BME280;4590;51.462;6.692;2024-01-16T00:56:42;100666.50;;;2.43;74.39
9110;BME280;4590;51.462;6.692;2024-01-16T00:59:15;100671.19;;;2.47;74.30
9110;BME280;4590;51.462;6.692;2024-01-16T01:01:50;100683.69;;;2.49;75.05
9110;BME280;4590;51.462;6.692;2024-01-16T01:04:15;100673.63;;;2.49;74.52
9110;BME280;4590;51.462;6.692;2024-01-16T01:06:46;100673.88;;;2.47;75.12
9110;BME280;4590;51.462;6.692;2024-01-16T01:09:16;100680.41;;;2.46;74.22
9110;BME280;4590;51.462;6.692;2024-01-16T01:11:56;100691.25;;;2.46;75.16
9110;BME280;4590;51.462;6.692;2024-01-16T01:14:33;100687.41;;;2.42;74.67
9110;BME280;4590;51.462;6.692;2024-01-16T01:17:20;100678.19;;;2.43;74.24
9110;BME280;4590;51.462;6.692;2024-01-16T01:20:15;100686.91;;;2.45;74.96
9110;BME280;4590;51.462;6.692;2024-01-16T01:22:55;100690.75;;;2.50;74.42
9110;BME280;4590;51.462;6.692;2024-01-16T01:25:21;100683.69;;;2.49;74.43
9110;BME280;4590;51.462;6.692;2024-01-16T01:27:56;100685.56;;;2.48;74.37
9110;BME280;4590;51.462;6.692;2024-01-16T01:30:28;100691.25;;;2.46;75.02
9110;BME280;4590;51.462;6.692;2024-01-16T01:33:20;100697.50;;;2.47;74.41
9110;BME280;4590;51.462;6.692;2024-01-16T01:35:51;100697.00;;;2.50;74.28
9110;BME280;4590;51.462;6.692;2024-01-16T01:38:35;100706.81;;;2.51;74.96
9110;BME280;4590;51.462;6.692;2024-01-16T01:41:44;100694.53;;;2.49;74.96
9110;BME280;4590;51.462;6.692;2024-01-16T01:44:43;100703.25;;;2.51;74.55
9110;BME280;4590;51.462;6.692;2024-01-16T01:47:25;100694.84;;;2.52;74.78
9110;BME280;4590;51.462;6.692;2024-01-16T01:49:53;100697.00;;;2.50;74.94
9110;BME280;4590;51.462;6.692;2024-01-16T01:52:22;100708.41;;;2.52;74.93
9110;BME280;4590;51.462;6.692;2024-01-16T01:54:50;100706.53;;;2.53;75.06
9110;BME280;4590;51.462;6.692;2024-01-16T01:57:53;100712.97;;;2.46;74.90
9110;BME280;4590;51.462;6.692;2024-01-16T02:00:22;100708.69;;;2.51;74.70
9110;BME280;4590;51.462;6.692;2024-01-16T02:02:57;100703.25;;;2.51;74.57
9110;BME280;4590;51.462;6.692;2024-01-16T02:05:36;100713.06;;;2.52;74.53
9110;BME280;4590;51.462;6.692;2024-01-16T02:08:05;100715.50;;;2.53;74.41
9110;BME280;4590;51.462;6.692;2024-01-16T02:10:45;100716.56;;;2.52;74.84
9110;BME280;4590;51.462;6.692;2024-01-16T02:13:43;100717.97;;;2.55;74.94
9110;BME280;4590;51.462;6.692;2024-01-16T02:17:00;100704.09;;;2.51;75.06
9110;BME280;4590;51.462;6.692;2024-01-16T02:19:46;100713.34;;;2.55;74.74
9110;BME280;4590;51.462;6.692;2024-01-16T02:22:43;100710.03;;;2.48;75.33
9110;BME280;4590;51.462;6.692;2024-01-16T02:25:22;100713.59;;;2.54;75.15
9110;BME280;4590;51.462;6.692;2024-01-16T02:28:02;100714.41;;;2.54;75.13
9110;BME280;4590;51.462;6.692;2024-01-16T02:30:53;100707.34;;;2.53;75.48
9110;BME280;4590;51.462;6.692;2024-01-16T02:33:32;100704.63;;;2.53;74.98
9110;BME280;4590;51.462;6.692;2024-01-16T02:36:11;100702.47;;;2.55;75.20
9110;BME280;4590;51.462;6.692;2024-01-16T02:39:41;100701.09;;;2.53;75.08
9110;BME280;4590;51.462;6.692;2024-01-16T02:42:39;100700.00;;;2.54;74.67
9110;BME280;4590;51.462;6.692;2024-01-16T02:45:16;100695.72;;;2.58;75.06
9110;BME280;4590;51.462;6.692;2024-01-16T02:47:48;100685.94;;;2.57;75.34
9110;BME280;4590;51.462;6.692;2024-01-16T02:50:15;100680.81;;;2.60;75.55
9110;BME280;4590;51.462;6.692;2024-01-16T02:53:07;100687.50;;;2.53;74.50
9110;BME280;4590;51.462;6.692;2024-01-16T02:55:43;100686.50;;;2.59;74.75
9110;BME280;4590;51.462;6.692;2024-01-16T02:58:30;100700.09;;;2.59;75.29
9110;BME280;4590;51.462;6.692;2024-01-16T03:01:14;100694.59;;;2.54;75.35
9110;BME280;4590;51.462;6.692;2024-01-16T03:03:48;100691.88;;;2.54;75.23
9110;BME280;4590;51.462;6.692;2024-01-16T03:06:34;100697.84;;;2.51;75.23
9110;BME280;4590;51.462;6.692;2024-01-16T03:09:04;100700.34;;;2.57;75.14
9110;BME280;4590;51.462;6.692;2024-01-16T03:11:53;100704.69;;;2.58;75.49
9110;BME280;4590;51.462;6.692;2024-01-16T03:14:39;100694.28;;;2.50;75.04
9110;BME280;4590;51.462;6.692;2024-01-16T03:17:35;100690.78;;;2.55;74.69
9110;BME280;4590;51.462;6.692;2024-01-16T03:20:24;100693.50;;;2.55;75.31
9110;BME280;4590;51.462;6.692;2024-01-16T03:22:57;100691.63;;;2.55;75.07
9110;BME280;4590;51.462;6.692;2024-01-16T03:25:36;100690.22;;;2.53;75.00
9110;BME280;4590;51.462;6.692;2024-01-16T03:28:06;100710.63;;;2.55;75.36
9110;BME280;4590;51.462;6.692;2024-01-16T03:30:51;100701.38;;;2.51;75.43
9110;BME280;4590;51.462;6.692;2024-01-16T03:33:18;100695.97;;;2.56;74.94
9110;BME280;4590;51.462;6.692;2024-01-16T03:36:16;100694.84;;;2.52;75.00
9110;BME280;4590;51.462;6.692;2024-01-16T03:38:49;100703.31;;;2.56;74.74
9110;BME280;4590;51.462;6.692;2024-01-16T03:41:44;100703.25;;;2.51;75.50
9110;BME280;4590;51.462;6.692;2024-01-16T03:44:58;100702.19;;;2.52;75.64
9110;BME280;4590;51.462;6.692;2024-01-16T03:47:48;100705.50;;;2.59;75.46
9110;BME280;4590;51.462;6.692;2024-01-16T03:50:27;100704.44;;;2.60;75.10
9110;BME280;4590;51.462;6.692;2024-01-16T03:52:58;100702.28;;;2.62;75.13
9110;BME280;4590;51.462;6.692;2024-01-16T03:55:40;100696.88;;;2.62;75.13
9110;BME280;4590;51.462;6.692;2024-01-16T03:58:18;100702.28;;;2.62;74.95
9110;BME280;4590;51.462;6.692;2024-01-16T04:00:57;100699.59;;;2.62;74.89
9110;BME280;4590;51.462;6.692;2024-01-16T04:03:28;100699.59;;;2.62;74.83
9110;BME280;4590;51.462;6.692;2024-01-16T04:06:39;100699.84;;;2.60;74.75
9110;BME280;4590;51.462;6.692;2024-01-16T04:09:10;100699.59;;;2.62;75.21
9110;BME280;4590;51.462;6.692;2024-01-16T04:11:42;100707.47;;;2.63;75.72
9110;BME280;4590;51.462;6.692;2024-01-16T04:14:08;100706.66;;;2.63;75.12
9110;BME280;4590;51.462;6.692;2024-01-16T04:17:16;100700.34;;;2.57;75.28
9110;BME280;4590;51.462;6.692;2024-01-16T04:19:59;100704.75;;;2.63;75.20
9110;BME280;4590;51.462;6.692;2024-01-16T04:22:51;100708.81;;;2.61;74.76
9110;BME280;4590;51.462;6.692;2024-01-16T04:25:48;100700.41;;;2.62;75.29
9110;BME280;4590;51.462;6.692;2024-01-16T04:28:35;100700.16;;;2.64;75.33
9110;BME280;4590;51.462;6.692;2024-01-16T04:31:06;100698.00;;;2.66;74.65
9110;BME280;4590;51.462;6.692;2024-01-16T04:33:52;100697.69;;;2.62;74.95
9110;BME280;4590;51.462;6.692;2024-01-16T04:36:47;100699.47;;;2.52;75.02
9110;BME280;4590;51.462;6.692;2024-01-16T04:39:32;100700.97;;;2.64;74.75
9110;BME280;4590;51.462;6.692;2024-01-16T04:42:18;100698.53;;;2.68;74.63
9110;BME280;4590;51.462;6.692;2024-01-16T04:45:17;100694.97;;;2.62;74.36
9110;BME280;4590;51.462;6.692;2024-01-16T04:47:49;100697.47;;;2.69;74.51
9110;BME280;4590;51.462;6.692;2024-01-16T04:50:24;100683.06;;;2.68;75.27
9110;BME280;4590;51.462;6.692;2024-01-16T04:53:22;100703.44;;;2.66;74.89
9110;BME280;4590;51.462;6.692;2024-01-16T04:56:41;100687.13;;;2.66;74.50
9110;BME280;4590;51.462;6.692;2024-01-16T04:59:11;100684.16;;;2.67;74.96
9110;BME280;4590;51.462;6.692;2024-01-16T05:02:10;100689.28;;;2.64;74.30
9110;BME280;4590;51.462;6.692;2024-01-16T05:04:59;100684.59;;;2.59;74.63
9110;BME280;4590;51.462;6.692;2024-01-16T05:07:51;100684.34;;;2.61;74.36
9110;BME280;4590;51.462;6.692;2024-01-16T05:10:33;100684.09;;;2.62;74.66
9110;BME280;4590;51.462;6.692;2024-01-16T05:13:00;100680.81;;;2.60;74.32
9110;BME280;4590;51.462;6.692;2024-01-16T05:15:38;100676.72;;;2.58;74.44
9110;BME280;4590;51.462;6.692;2024-01-16T05:18:27;100676.38;;;2.54;74.27
9110;BME280;4590;51.462;6.692;2024-01-16T05:20:59;100679.16;;;2.59;74.50
9110;BME280;4590;51.462;6.692;2024-01-16T05:23:44;100678.03;;;2.55;74.00
9110;BME280;4590;51.462;6.692;2024-01-16T05:26:23;100675.31;;;2.55;73.85
9110;BME280;4590;51.462;6.692;2024-01-16T05:28:52;100676.13;;;2.56;74.25
9110;BME280;4590;51.462;6.692;2024-01-16T05:31:31;100679.34;;;2.53;74.57
9110;BME280;4590;51.462;6.692;2024-01-16T05:34:02;100671.78;;;2.55;74.83
9110;BME280;4590;51.462;6.692;2024-01-16T05:36:29;100667.16;;;2.55;74.19
9110;BME280;4590;51.462;6.692;2024-01-16T05:39:26;100669.03;;;2.50;74.64
9110;BME280;4590;51.462;6.692;2024-01-16T05:42:03;100669.88;;;2.55;74.06
9110;BME280;4590;51.462;6.692;2024-01-16T05:44:33;100667.69;;;2.52;74.56
9110;BME280;4590;51.462;6.692;2024-01-16T05:47:01;100665.75;;;2.47;74.71
9110;BME280;4590;51.462;6.692;2024-01-16T05:49:31;100664.66;;;2.49;74.28
9110;BME280;4590;51.462;6.692;2024-01-16T05:52:08;100664.59;;;2.43;74.31
9110;BME280;4590;51.462;6.692;2024-01-16T05:54:48;100668.41;;;2.42;74.66
9110;BME280;4590;51.462;6.692;2024-01-16T05:57:53;100661.00;;;2.38;74.46
9110;BME280;4590;51.462;6.692;2024-01-16T06:00:42;100656.72;;;2.42;74.52
9110;BME280;4590;51.462;6.692;2024-01-16T06:03:30;100656.13;;;2.40;74.92
9110;BME280;4590;51.462;6.692;2024-01-16T06:06:26;100654.13;;;2.30;73.97
9110;BME280;4590;51.462;6.692;2024-01-16T06:09:25;100653.25;;;2.25;74.11
9110;BME280;4590;51.462;6.692;2024-01-16T06:12:09;100663.53;;;2.23;74.56
9110;BME280;4590;51.462;6.692;2024-01-16T06:14:42;100656.78;;;2.25;74.86
9110;BME280;4590;51.462;6.692;2024-01-16T06:17:14;100655.38;;;2.23;74.22
9110;BME280;4590;51.462;6.692;2024-01-16T06:20:07;100663.50;;;2.18;73.92
9110;BME280;4590;51.462;6.692;2024-01-16T06:22:54;100648.31;;;2.22;74.39
9110;BME280;4590;51.462;6.692;2024-01-16T06:25:49;100640.06;;;2.11;74.12
9110;BME280;4590;51.462;6.692;2024-01-16T06:28:30;100659.31;;;2.10;74.41
9110;BME280;4590;51.462;6.692;2024-01-16T06:31:03;100644.69;;;2.11;74.73
9110;BME280;4590;51.462;6.692;2024-01-16T06:33:52;100647.13;;;2.13;73.92
9110;BME280;4590;51.462;6.692;2024-01-16T06:36:34;100651.19;;;2.10;74.74
9110;BME280;4590;51.462;6.692;2024-01-16T06:39:14;100660.34;;;2.04;74.21
9110;BME280;4590;51.462;6.692;2024-01-16T06:42:10;100661.66;;;2.01;74.31
9110;BME280;4590;51.462;6.692;2024-01-16T06:44:38;100666.31;;;2.06;74.40
9110;BME280;4590;51.462;6.692;2024-01-16T06:47:06;100669.03;;;2.06;74.06
9110;BME280;4590;51.462;6.692;2024-01-16T06:49:37;100671.75;;;2.06;74.34
9110;BME280;4590;51.462;6.692;2024-01-16T06:52:24;100672.81;;;2.05;74.14
9110;BME280;4590;51.462;6.692;2024-01-16T06:55:07;100672.25;;;2.03;73.82
9110;BME280;4590;51.462;6.692;2024-01-16T06:57:48;100668.16;;;2.00;74.01
9110;BME280;4590;51.462;6.692;2024-01-16T07:00:37;100670.06;;;2.00;73.69
9110;BME280;4590;51.462;6.692;2024-01-16T07:03:07;100676.88;;;2.02;73.79
9110;BME280;4590;51.462;6.692;2024-01-16T07:05:36;100681.78;;;2.05;74.17
9110;BME280;4590;51.462;6.692;2024-01-16T07:08:15;100686.66;;;2.03;74.13
9110;BME280;4590;51.462;6.692;2024-01-16T07:10:45;100686.66;;;2.03;74.10
9110;BME280;4590;51.462;6.692;2024-01-16T07:13:22;100686.91;;;2.02;73.80
9110;BME280;4590;51.462;6.692;2024-01-16T07:15:53;100694.28;;;2.06;74.19
9110;BME280;4590;51.462;6.692;2024-01-16T07:18:35;100688.81;;;2.01;73.86
9110;BME280;4590;51.462;6.692;2024-01-16T07:24:18;100698.84;;;2.01;74.06
9110;BME280;4590;51.462;6.692;2024-01-16T07:26:49;100695.63;;;2.04;74.23
9110;BME280;4590;51.462;6.692;2024-01-16T07:29:19;100706.41;;;1.99;74.31
9110;BME280;4590;51.462;6.692;2024-01-16T07:32:36;100705.81;;;1.97;73.80
9110;BME280;4590;51.462;6.692;2024-01-16T07:35:04;100704.50;;;1.99;73.92
9110;BME280;4590;51.462;6.692;2024-01-16T07:37:56;100706.81;;;1.91;73.31
9110;BME280;4590;51.462;6.692;2024-01-16T07:40:21;100707.22;;;1.99;73.15
9110;BME280;4590;51.462;6.692;2024-01-16T07:43:03;100713.16;;;1.96;73.88
9110;BME280;4590;51.462;6.692;2024-01-16T07:46:07;100708.97;;;1.89;73.25
9110;BME280;4590;51.462;6.692;2024-01-16T07:48:43;100711.75;;;1.94;73.90
9110;BME280;4590;51.462;6.692;2024-01-16T07:51:11;100714.47;;;1.94;73.31
9110;BME280;4590;51.462;6.692;2024-01-16T07:54:06;100713.84;;;1.87;73.10
9110;BME280;4590;51.462;6.692;2024-01-16T07:56:59;100713.88;;;1.92;72.92
9110;BME280;4590;51.462;6.692;2024-01-16T07:59:32;100702.78;;;1.93;73.21
9110;BME280;4590;51.462;6.692;2024-01-16T08:02:04;100711.75;;;1.94;72.90
9110;BME280;4590;51.462;6.692;2024-01-16T08:04:44;100716.94;;;1.95;73.39
9110;BME280;4590;51.462;6.692;2024-01-16T08:07:19;100716.09;;;1.95;73.19
9110;BME280;4590;51.462;6.692;2024-01-16T08:10:14;100718.81;;;1.95;72.61
9110;BME280;4590;51.462;6.692;2024-01-16T08:12:41;100724.31;;;2.00;72.62
9110;BME280;4590;51.462;6.692;2024-01-16T08:15:08;100729.50;;;2.01;73.20
9110;BME280;4590;51.462;6.692;2024-01-16T08:17:44;100719.47;;;2.02;72.91
9110;BME280;4590;51.462;6.692;2024-01-16T08:20:18;100718.06;;;1.99;72.25
9110;BME280;4590;51.462;6.692;2024-01-16T08:22:49;100717.00;;;2.00;72.57
9110;BME280;4590;51.462;6.692;2024-01-16T08:25:29;100712.72;;;2.04;72.78
9110;BME280;4590;51.462;6.692;2024-01-16T08:28:28;100719.47;;;2.02;71.82
9110;BME280;4590;51.462;6.692;2024-01-16T08:31:00;100722.47;;;2.05;72.55
9110;BME280;4590;51.462;6.692;2024-01-16T08:33:48;100722.44;;;2.00;70.92
9110;BME280;4590;51.462;6.692;2024-01-16T08:36:16;100731.44;;;2.06;71.60
9110;BME280;4590;51.462;6.692;2024-01-16T08:38:47;100740.97;;;2.08;71.59
9110;BME280;4590;51.462;6.692;2024-01-16T08:41:23;100736.13;;;2.10;71.42
9110;BME280;4590;51.462;6.692;2024-01-16T08:44:14;100742.81;;;2.03;71.33
9110;BME280;4590;51.462;6.692;2024-01-16T08:46:46;100738.28;;;2.08;71.50
9110;BME280;4590;51.462;6.692;2024-01-16T08:49:22;100737.94;;;2.05;71.03
9110;BME280;4590;51.462;6.692;2024-01-16T08:52:03;100744.19;;;2.05;70.50
9110;BME280;4590;51.462;6.692;2024-01-16T08:54:38;100735.81;;;2.07;71.06
9110;BME280;4590;51.462;6.692;2024-01-16T08:57:08;100743.13;;;2.06;71.37
9110;BME280;4590;51.462;6.692;2024-01-16T08:59:41;100739.59;;;2.06;70.80
9110;BME280;4590;51.462;6.692;2024-01-16T09:02:08;100735.31;;;2.10;71.11
9110;BME280;4590;51.462;6.692;2024-01-16T09:05:15;100731.19;;;2.07;71.00
9110;BME280;4590;51.462;6.692;2024-01-16T09:07:47;100743.38;;;2.05;70.30
9110;BME280;4590;51.462;6.692;2024-01-16T09:10:18;100741.81;;;2.09;71.12
9110;BME280;4590;51.462;6.692;2024-01-16T09:12:50;100742.06;;;2.07;70.99
9110;BME280;4590;51.462;6.692;2024-01-16T09:15:28;100739.34;;;2.07;70.66
9110;BME280;4590;51.462;6.692;2024-01-16T09:18:37;100736.06;;;2.05;70.65
9110;BME280;4590;51.462;6.692;2024-01-16T09:21:31;100734.50;;;2.09;70.68
9110;BME280;4590;51.462;6.692;2024-01-16T09:24:35;100736.34;;;2.04;69.58
9110;BME280;4590;51.462;6.692;2024-01-16T09:27:40;100737.16;;;2.04;69.14
9110;BME280;4590;51.462;6.692;2024-01-16T09:30:10;100745.09;;;2.11;69.88
9110;BME280;4590;51.462;6.692;2024-01-16T09:32:45;100730.69;;;2.10;70.21
9110;BME280;4590;51.462;6.692;2024-01-16T09:35:22;100722.31;;;2.12;70.44
9110;BME280;4590;51.462;6.692;2024-01-16T09:37:50;100724.53;;;2.15;70.74
9110;BME280;4590;51.462;6.692;2024-01-16T09:40:29;100734.66;;;2.20;69.88
9110;BME280;4590;51.462;6.692;2024-01-16T09:43:09;100734.31;;;2.16;69.58
9110;BME280;4590;51.462;6.692;2024-01-16T09:45:38;100740.06;;;2.20;69.54
9110;BME280;4590;51.462;6.692;2024-01-16T09:48:16;100724.59;;;2.20;69.26
9110;BME280;4590;51.462;6.692;2024-01-16T09:50:53;100727.63;;;2.24;69.40
9110;BME280;4590;51.462;6.692;2024-01-16T09:56:48;100740.13;;;2.25;69.34
9110;BME280;4590;51.462;6.692;2024-01-16T09:59:20;100727.38;;;2.25;68.93
9110;BME280;4590;51.462;6.692;2024-01-16T10:01:55;100731.22;;;2.29;69.54
9110;BME280;4590;51.462;6.692;2024-01-16T10:04:53;100718.22;;;2.31;69.72
9110;BME280;4590;51.462;6.692;2024-01-16T10:07:43;100715.25;;;2.33;69.59
9110;BME280;4590;51.462;6.692;2024-01-16T10:10:39;100721.50;;;2.33;68.64
9110;BME280;4590;51.462;6.692;2024-01-16T10:23:50;100717.44;;;2.58;68.95
9110;BME280;4590;51.462;6.692;2024-01-16T10:26:16;100716.38;;;2.59;68.25
9110;BME280;4590;51.462;6.692;2024-01-16T10:28:43;100708.81;;;2.61;68.41
9110;BME280;4590;51.462;6.692;2024-01-16T10:31:10;100701.78;;;2.65;69.04
9110;BME280;4590;51.462;6.692;2024-01-16T10:33:36;100710.22;;;2.68;69.04
9110;BME280;4590;51.462;6.692;2024-01-16T10:36:07;100695.81;;;2.68;68.61
9110;BME280;4590;51.462;6.692;2024-01-16T10:38:35;100700.50;;;2.72;68.80
9110;BME280;4590;51.462;6.692;2024-01-16T10:41:08;100692.59;;;2.71;68.15
9110;BME280;4590;51.462;6.692;2024-01-16T10:43:34;100707.31;;;2.75;68.68
9110;BME280;4590;51.462;6.692;2024-01-16T10:46:18;100703.44;;;2.66;67.49
9110;BME280;4590;51.462;6.692;2024-01-16T10:49:00;100714.56;;;2.64;66.94
9110;BME280;4590;51.462;6.692;2024-01-16T10:51:27;100699.66;;;2.67;68.25
9110;BME280;4590;51.462;6.692;2024-01-16T10:54:03;100699.59;;;2.62;67.02
9110;BME280;4590;51.462;6.692;2024-01-16T10:56:34;100696.94;;;2.67;67.63
9110;BME280;4590;51.462;6.692;2024-01-16T11:01:34;100683.38;;;2.72;67.93
9110;BME280;4590;51.462;6.692;2024-01-16T11:04:01;100677.00;;;2.83;67.87
9110;BME280;4590;51.462;6.692;2024-01-16T11:06:26;100674.56;;;2.87;66.33
9110;BME280;4590;51.462;6.692;2024-01-16T11:08:53;100684.28;;;3.09;67.99
9110;BME280;4590;51.462;6.692;2024-01-16T11:11:19;100677.34;;;3.24;67.90
9110;BME280;4590;51.462;6.692;2024-01-16T11:13:46;100678.59;;;3.43;68.39
9110;BME280;4590;51.462;6.692;2024-01-16T11:16:12;100682.50;;;3.57;67.82
9110;BME280;4590;51.462;6.692;2024-01-16T11:18:37;100672.25;;;3.69;68.03
9110;BME280;4590;51.462;6.692;2024-01-16T11:21:06;100676.97;;;3.84;67.67
9110;BME280;4590;51.462;6.692;2024-01-16T11:23:32;100681.38;;;3.95;67.58
9110;BME280;4590;51.462;6.692;2024-01-16T11:25:57;100686.56;;;3.97;66.65
9110;BME280;4590;51.462;6.692;2024-01-16T11:28:27;100698.00;;;3.99;66.17
9110;BME280;4590;51.462;6.692;2024-01-16T11:30:54;100698.59;;;4.06;66.79
9110;BME280;4590;51.462;6.692;2024-01-16T11:35:57;100684.00;;;4.32;67.46
9110;BME280;4590;51.462;6.692;2024-01-16T11:38:24;100677.25;;;4.50;67.42
9110;BME280;4590;51.462;6.692;2024-01-16T11:40:52;100674.59;;;4.65;67.77
9110;BME280;4590;51.462;6.692;2024-01-16T11:46:05;100655.25;;;4.77;65.47
9110;BME280;4590;51.462;6.692;2024-01-16T11:48:32;100650.63;;;4.82;65.84
9110;BME280;4590;51.462;6.692;2024-01-16T11:50:58;100658.00;;;4.82;65.87
9110;BME280;4590;51.462;6.692;2024-01-16T11:53:33;100645.44;;;4.76;63.91
9110;BME280;4590;51.462;6.692;2024-01-16T11:59:13;100643.53;;;4.71;63.49
9110;BME280;4590;51.462;6.692;2024-01-16T12:01:44;100636.69;;;4.74;64.29
9110;BME280;4590;51.462;6.692;2024-01-16T12:04:10;100641.63;;;4.72;63.94
9110;BME280;4590;51.462;6.692;2024-01-16T12:06:36;100641.34;;;4.68;63.88
9110;BME280;4590;51.462;6.692;2024-01-16T12:09:13;100639.94;;;4.61;62.47
9110;BME280;4590;51.462;6.692;2024-01-16T12:11:39;100642.69;;;4.61;63.11
9110;BME280;4590;51.462;6.692;2024-01-16T12:14:05;100631.78;;;4.55;62.88
9110;BME280;4590;51.462;6.692;2024-01-16T12:16:30;100632.59;;;4.51;63.20
9110;BME280;4590;51.462;6.692;2024-01-16T12:19:06;100627.66;;;4.38;61.70
9110;BME280;4590;51.462;6.692;2024-01-16T12:21:34;100613.75;;;4.39;62.85
9110;BME280;4590;51.462;6.692;2024-01-16T12:23:59;100614.81;;;4.33;62.47
9110;BME280;4590;51.462;6.692;2024-01-16T12:26:25;100604.44;;;4.25;62.42
9110;BME280;4590;51.462;6.692;2024-01-16T12:28:53;100606.63;;;4.23;62.56
9110;BME280;4590;51.462;6.692;2024-01-16T12:31:19;100600.38;;;4.22;63.22
9110;BME280;4590;51.462;6.692;2024-01-16T12:33:44;100599.00;;;4.20;62.61
9110;BME280;4590;51.462;6.692;2024-01-16T12:36:09;100598.69;;;4.16;62.51
9110;BME280;4590;51.462;6.692;2024-01-16T12:38:36;100595.41;;;4.14;62.12
9110;BME280;4590;51.462;6.692;2024-01-16T12:41:01;100595.69;;;4.13;62.58
9110;BME280;4590;51.462;6.692;2024-01-16T12:43:31;100584.25;;;4.11;62.13
9110;BME280;4590;51.462;6.692;2024-01-16T12:45:57;100586.69;;;4.12;62.58
9110;BME280;4590;51.462;6.692;2024-01-16T12:48:25;100585.31;;;4.10;62.18
9110;BME280;4590;51.462;6.692;2024-01-16T12:50:50;100586.69;;;4.12;62.52
9110;BME280;4590;51.462;6.692;2024-01-16T12:53:16;100571.19;;;4.08;61.99
9110;BME280;4590;51.462;6.692;2024-01-16T12:55:44;100573.91;;;4.08;61.82
9110;BME280;4590;51.462;6.692;2024-01-16T12:58:24;100575.50;;;3.99;61.07
9110;BME280;4590;51.462;6.692;2024-01-16T13:00:51;100580.69;;;4.00;62.12
9110;BME280;4590;51.462;6.692;2024-01-16T13:03:21;100576.56;;;3.98;61.83
9110;BME280;4590;51.462;6.692;2024-01-16T13:05:59;100578.75;;;3.91;60.49
9110;BME280;4590;51.462;6.692;2024-01-16T13:08:26;100578.75;;;3.96;62.24
9110;BME280;4590;51.462;6.692;2024-01-16T13:11:07;100570.31;;;3.92;61.10
9110;BME280;4590;51.462;6.692;2024-01-16T13:13:33;100570.31;;;3.97;62.23
9110;BME280;4590;51.462;6.692;2024-01-16T13:15:59;100575.19;;;3.95;61.88
9110;BME280;4590;51.462;6.692;2024-01-16T13:18:26;100571.66;;;3.90;61.84
9110;BME280;4590;51.462;6.692;2024-01-16T13:20:53;100568.94;;;3.90;61.45
9110;BME280;4590;51.462;6.692;2024-01-16T13:23:18;100563.44;;;3.79;59.46
9110;BME280;4590;51.462;6.692;2024-01-16T13:25:47;100570.03;;;3.88;61.16
9110;BME280;4590;51.462;6.692;2024-01-16T13:28:13;100570.84;;;3.89;61.74
9110;BME280;4590;51.462;6.692;2024-01-16T13:30:39;100575.72;;;3.87;61.32
9110;BME280;4590;51.462;6.692;2024-01-16T13:33:05;100577.38;;;3.88;61.51
9110;BME280;4590;51.462;6.692;2024-01-16T13:35:31;100573.53;;;3.84;61.34
9110;BME280;4590;51.462;6.692;2024-01-16T13:37:56;100579.78;;;3.84;61.31
9110;BME280;4590;51.462;6.692;2024-01-16T13:40:21;100574.91;;;3.86;61.27
9110;BME280;4590;51.462;6.692;2024-01-16T13:42:48;100559.41;;;3.87;61.38
9110;BME280;4590;51.462;6.692;2024-01-16T13:45:13;100555.31;;;3.90;61.16
9110;BME280;4590;51.462;6.692;2024-01-16T13:47:39;100562.38;;;3.85;61.25
9110;BME280;4590;51.462;6.692;2024-01-16T13:50:06;100555.84;;;3.86;60.76
9110;BME280;4590;51.462;6.692;2024-01-16T13:52:32;100548.19;;;3.73;58.47
9110;BME280;4590;51.462;6.692;2024-01-16T13:54:57;100552.56;;;3.84;60.88
9110;BME280;4590;51.462;6.692;2024-01-16T13:57:23;100544.94;;;3.81;60.73
9110;BME280;4590;51.462;6.692;2024-01-16T13:59:48;100539.75;;;3.80;60.48
9110;BME280;4590;51.462;6.692;2024-01-16T14:02:13;100535.97;;;3.81;60.81
9110;BME280;4590;51.462;6.692;2024-01-16T14:04:39;100533.22;;;3.81;60.89
9110;BME280;4590;51.462;6.692;2024-01-16T14:07:04;100545.19;;;3.75;60.56
9110;BME280;4590;51.462;6.692;2024-01-16T14:09:34;100546.25;;;3.69;59.21
9110;BME280;4590;51.462;6.692;2024-01-16T14:12:00;100538.88;;;3.64;60.22
9110;BME280;4590;51.462;6.692;2024-01-16T14:14:26;100539.44;;;3.66;60.44
9110;BME280;4590;51.462;6.692;2024-01-16T14:16:53;100538.34;;;3.67;60.66
9110;BME280;4590;51.462;6.692;2024-01-16T14:19:19;100544.06;;;3.66;60.18
9110;BME280;4590;51.462;6.692;2024-01-16T14:21:45;100547.03;;;3.64;60.18
9110;BME280;4590;51.462;6.692;2024-01-16T14:24:12;100544.06;;;3.61;60.12
9110;BME280;4590;51.462;6.692;2024-01-16T14:26:37;100551.66;;;3.59;60.19
9110;BME280;4590;51.462;6.692;2024-01-16T14:29:02;100536.69;;;3.56;60.26
9110;BME280;4590;51.462;6.692;2024-01-16T14:31:50;100543.69;;;3.42;57.49
9110;BME280;4590;51.462;6.692;2024-01-16T14:34:48;100542.34;;;3.44;58.90
9110;BME280;4590;51.462;6.692;2024-01-16T14:37:16;100535.53;;;3.47;59.74
9110;BME280;4590;51.462;6.692;2024-01-16T14:39:42;100535.81;;;3.45;60.14
9110;BME280;4590;51.462;6.692;2024-01-16T14:42:07;100532.81;;;3.47;60.22
9110;BME280;4590;51.462;6.692;2024-01-16T14:44:33;100540.44;;;3.45;59.85
9110;BME280;4590;51.462;6.692;2024-01-16T14:46:58;100534.44;;;3.43;59.61